createdAt,value
2018-05-02T16:46:47.421Z,19.00
2018-05-02T17:00:47.206Z,18.30
2018-05-02T17:03:15.448Z,18.20
2018-05-02T17:05:43.223Z,17.90
2018-05-02T17:08:10.730Z,17.90
2018-05-02T17:10:38.236Z,17.90
2018-05-02T17:13:05.745Z,17.80
2018-05-02T17:15:33.350Z,17.70
2018-05-02T17:18:01.212Z,17.60
2018-05-02T17:20:29.486Z,17.60
2018-05-02T17:22:56.996Z,17.70
2018-05-02T17:25:24.504Z,17.80
2018-05-02T17:27:52.271Z,17.70
2018-05-02T17:30:19.937Z,17.70
2018-05-02T17:32:47.693Z,17.60
2018-05-02T17:35:15.205Z,17.60
2018-05-02T17:37:42.753Z,17.50
2018-05-02T17:40:11.055Z,17.60
2018-05-02T17:42:38.558Z,17.60
2018-05-02T17:45:06.206Z,17.50
2018-05-02T17:47:33.714Z,17.30
2018-05-02T17:50:01.239Z,17.30
2018-05-02T17:52:28.854Z,17.20
2018-05-02T17:54:56.363Z,17.10
2018-05-02T17:57:24.311Z,17.00
2018-05-02T17:59:52.360Z,16.80
2018-05-02T18:02:19.861Z,16.70
2018-05-02T18:04:47.369Z,16.60
2018-05-02T18:07:15.158Z,16.20
2018-05-02T18:09:42.678Z,16.10
2018-05-02T18:12:10.391Z,16.00
2018-05-02T18:14:38.862Z,16.00
2018-05-02T18:17:06.526Z,15.80
2018-05-02T18:19:34.285Z,15.80
2018-05-02T18:22:01.797Z,15.60
2018-05-02T18:24:29.312Z,15.70
2018-05-02T18:26:56.838Z,15.70
2018-05-02T18:29:24.369Z,15.60
2018-05-02T18:31:51.896Z,15.60
2018-05-02T18:34:19.633Z,15.50
2018-05-02T18:36:47.149Z,15.40
2018-05-02T18:39:14.848Z,15.30
2018-05-02T18:41:42.380Z,15.00
2018-05-02T18:44:09.878Z,15.00
2018-05-02T18:46:37.502Z,14.80
2018-05-02T18:49:05.064Z,14.90
2018-05-02T18:51:32.587Z,15.00
2018-05-02T18:54:00.854Z,15.00
2018-05-02T18:56:28.366Z,15.00
2018-05-02T18:58:55.888Z,14.90
2018-05-02T19:01:23.404Z,14.90
2018-05-02T19:03:51.036Z,14.70
2018-05-02T19:06:18.475Z,14.80
2018-05-02T19:08:46.142Z,14.70
2018-05-02T19:11:13.943Z,14.70
2018-05-02T19:13:47.011Z,14.60
2018-05-02T19:16:14.698Z,14.50
2018-05-02T19:18:47.904Z,14.30
2018-05-02T19:21:15.431Z,14.30
2018-05-02T19:23:42.942Z,14.30
2018-05-02T19:26:16.062Z,14.30
2018-05-02T19:28:43.574Z,14.30
2018-05-02T19:31:16.904Z,14.20
2018-05-02T19:33:50.218Z,14.20
2018-05-02T19:36:17.734Z,14.20
2018-05-02T19:38:45.424Z,14.10
2018-05-02T19:41:18.617Z,14.10
2018-05-02T19:43:51.742Z,14.10
2018-05-02T19:46:19.326Z,14.00
2018-05-02T19:48:47.871Z,14.00
2018-05-02T19:51:21.108Z,13.90
2018-05-02T19:53:48.567Z,13.90
2018-05-02T19:56:16.088Z,13.90
2018-05-02T19:58:43.586Z,13.90
2018-05-02T20:01:16.720Z,13.80
2018-05-02T20:03:44.285Z,13.80
2018-05-02T20:06:11.801Z,13.70
2018-05-02T20:08:44.893Z,13.70
2018-05-02T20:11:18.093Z,13.60
2018-05-02T20:13:51.346Z,13.60
2018-05-02T20:16:19.397Z,13.50
2018-05-02T20:18:47.151Z,13.50
2018-05-02T20:21:15.523Z,13.50
2018-05-02T20:23:43.291Z,13.50
2018-05-02T20:26:10.805Z,13.50
2018-05-02T20:28:38.319Z,13.50
2018-05-02T20:31:05.965Z,13.40
2018-05-02T20:33:33.729Z,13.30
2018-05-02T20:36:01.337Z,13.30
2018-05-02T20:38:29.617Z,13.40
2018-05-02T20:40:57.330Z,13.30
2018-05-02T20:43:24.852Z,13.30
2018-05-02T20:45:52.375Z,13.30
2018-05-02T20:48:20.921Z,13.20
2018-05-02T20:50:48.437Z,13.20
2018-05-02T20:53:16.007Z,13.20
2018-05-02T20:55:43.555Z,13.20
2018-05-02T20:58:11.066Z,13.20
2018-05-02T21:00:38.584Z,13.20
2018-05-02T21:03:06.310Z,13.20
2018-05-02T21:05:33.831Z,13.10
2018-05-02T21:08:01.354Z,13.10
2018-05-02T21:10:29.615Z,13.10
2018-05-02T21:12:57.122Z,13.10
2018-05-02T21:15:24.623Z,13.00
2018-05-02T21:17:52.901Z,12.90
2018-05-02T21:20:20.413Z,12.90
2018-05-02T21:22:47.914Z,12.90
2018-05-02T21:25:16.454Z,12.70
2018-05-02T21:27:43.960Z,12.70
2018-05-02T21:30:11.470Z,12.70
2018-05-02T21:32:39.106Z,12.70
2018-05-02T21:35:06.610Z,12.70
2018-05-02T21:37:34.236Z,12.70
2018-05-02T21:40:01.815Z,12.70
2018-05-02T21:42:29.330Z,12.60
2018-05-02T21:44:56.986Z,12.60
2018-05-02T21:47:24.494Z,12.60
2018-05-02T21:49:51.997Z,12.60
2018-05-02T21:52:19.702Z,12.50
2018-05-02T21:54:47.201Z,12.50
2018-05-02T21:57:14.755Z,12.50
2018-05-02T21:59:43.300Z,12.30
2018-05-02T22:02:10.812Z,12.30
2018-05-02T22:04:38.314Z,12.30
2018-05-02T22:07:05.965Z,12.30
2018-05-02T22:09:33.614Z,12.30
2018-05-02T22:12:01.156Z,12.30
2018-05-02T22:14:28.958Z,12.20
2018-05-02T22:16:56.470Z,12.20
2018-05-02T22:19:25.098Z,12.20
2018-05-02T22:21:52.873Z,12.20
2018-05-02T22:24:20.625Z,12.20
2018-05-02T22:26:48.131Z,12.20
2018-05-02T22:29:15.646Z,12.10
2018-05-02T22:31:43.259Z,12.00
2018-05-02T22:34:10.770Z,12.00
2018-05-02T22:36:38.390Z,12.00
2018-05-02T22:39:05.954Z,12.00
2018-05-02T22:41:33.513Z,12.00
2018-05-02T22:44:01.006Z,11.90
2018-05-02T22:46:28.505Z,11.80
2018-05-02T22:48:56.023Z,11.80
2018-05-02T22:51:23.574Z,11.70
2018-05-02T22:53:51.090Z,11.80
2018-05-02T22:56:18.602Z,11.80
2018-05-02T22:58:46.221Z,11.80
2018-05-02T23:01:13.723Z,11.70
2018-05-02T23:03:41.243Z,11.70
2018-05-02T23:06:08.885Z,11.70
2018-05-02T23:08:36.688Z,11.70
2018-05-02T23:11:04.188Z,11.80
2018-05-02T23:13:31.692Z,11.70
2018-05-02T23:15:59.309Z,11.70
2018-05-02T23:18:26.919Z,11.70
2018-05-02T23:20:54.327Z,11.60
2018-05-02T23:23:22.017Z,11.60
2018-05-02T23:25:49.546Z,11.60
2018-05-02T23:28:17.237Z,11.60
2018-05-02T23:30:45.028Z,11.60
2018-05-02T23:33:12.787Z,11.60
2018-05-02T23:35:40.292Z,11.60
2018-05-02T23:38:07.983Z,11.60
2018-05-02T23:40:35.766Z,11.50
2018-05-02T23:43:03.478Z,11.50
2018-05-02T23:45:30.995Z,11.50
2018-05-02T23:47:58.749Z,11.50
2018-05-02T23:50:26.382Z,11.50
2018-05-02T23:52:53.959Z,11.50
2018-05-02T23:55:21.465Z,11.50
2018-05-02T23:57:49.198Z,11.30
